sensor_id;sensor_type;location;lat;lon;timestamp;pressure;altitude;pressure_sealevel;temperature
68911;BMP180;55953;51.650;-0.522;2024-03-29T00:00:58;97453.20;;;7.80
68911;BMP180;55953;51.650;-0.522;2024-03-29T00:03:47;97456.00;;;7.78
68911;BMP180;55953;51.650;-0.522;2024-03-29T00:06:14;97465.40;;;7.74
68911;BMP180;55953;51.650;-0.522;2024-03-29T00:08:42;97469.00;;;7.70
68911;BMP180;55953;51.650;-0.522;2024-03-29T00:11:10;97473.40;;;7.62
68911;BMP180;55953;51.650;-0.522;2024-03-29T00:13:37;97470.40;;;7.60
68911;BMP180;55953;51.650;-0.522;2024-03-29T00:16:06;97475.60;;;7.60
68911;BMP180;55953;51.650;-0.522;2024-03-29T00:18:34;97481.40;;;7.50
68911;BMP180;55953;51.650;-0.522;2024-03-29T00:21:03;97487.60;;;7.50
68911;BMP180;55953;51.650;-0.522;2024-03-29T00:23:31;97495.60;;;7.48
68911;BMP180;55953;51.650;-0.522;2024-03-29T00:25:58;97501.20;;;7.40
68911;BMP180;55953;51.650;-0.522;2024-03-29T00:28:26;97501.40;;;7.40
68911;BMP180;55953;51.650;-0.522;2024-03-29T00:30:54;97505.20;;;7.40
68911;BMP180;55953;51.650;-0.522;2024-03-29T00:33:21;97503.20;;;7.34
68911;BMP180;55953;51.650;-0.522;2024-03-29T00:35:49;97514.80;;;7.30
68911;BMP180;55953;51.650;-0.522;2024-03-29T00:38:17;97511.60;;;7.30
68911;BMP180;55953;51.650;-0.522;2024-03-29T00:40:44;97518.20;;;7.38
68911;BMP180;55953;51.650;-0.522;2024-03-29T00:43:12;97516.00;;;7.30
68911;BMP180;55953;51.650;-0.522;2024-03-29T00:45:40;97516.20;;;7.30
68911;BMP180;55953;51.650;-0.522;2024-03-29T00:48:08;97519.80;;;7.30
68911;BMP180;55953;51.650;-0.522;2024-03-29T00:50:36;97516.20;;;7.30
68911;BMP180;55953;51.650;-0.522;2024-03-29T00:53:04;97511.80;;;7.30
68911;BMP180;55953;51.650;-0.522;2024-03-29T00:55:32;97504.40;;;7.30
68911;BMP180;55953;51.650;-0.522;2024-03-29T00:58:00;97510.00;;;7.30
68911;BMP180;55953;51.650;-0.522;2024-03-29T01:00:27;97503.60;;;7.30
68911;BMP180;55953;51.650;-0.522;2024-03-29T01:02:55;97510.00;;;7.30
68911;BMP180;55953;51.650;-0.522;2024-03-29T01:05:22;97511.40;;;7.30
68911;BMP180;55953;51.650;-0.522;2024-03-29T01:07:50;97512.40;;;7.30
68911;BMP180;55953;51.650;-0.522;2024-03-29T01:10:18;97511.00;;;7.24
68911;BMP180;55953;51.650;-0.522;2024-03-29T01:12:45;97515.00;;;7.20
68911;BMP180;55953;51.650;-0.522;2024-03-29T01:15:14;97513.80;;;7.20
68911;BMP180;55953;51.650;-0.522;2024-03-29T01:17:41;97514.80;;;7.20
68911;BMP180;55953;51.650;-0.522;2024-03-29T01:20:09;97510.60;;;7.20
68911;BMP180;55953;51.650;-0.522;2024-03-29T01:22:39;97510.60;;;7.20
68911;BMP180;55953;51.650;-0.522;2024-03-29T01:25:07;97508.20;;;7.20
68911;BMP180;55953;51.650;-0.522;2024-03-29T01:27:37;97508.60;;;7.20
68911;BMP180;55953;51.650;-0.522;2024-03-29T01:30:05;97504.80;;;7.20
68911;BMP180;55953;51.650;-0.522;2024-03-29T01:32:33;97502.00;;;7.20
68911;BMP180;55953;51.650;-0.522;2024-03-29T01:35:00;97508.40;;;7.20
68911;BMP180;55953;51.650;-0.522;2024-03-29T01:37:28;97514.40;;;7.30
68911;BMP180;55953;51.650;-0.522;2024-03-29T01:39:58;97510.20;;;7.30
68911;BMP180;55953;51.650;-0.522;2024-03-29T01:42:25;97515.00;;;7.30
68911;BMP180;55953;51.650;-0.522;2024-03-29T01:44:53;97519.80;;;7.24
68911;BMP180;55953;51.650;-0.522;2024-03-29T01:47:20;97518.20;;;7.20
68911;BMP180;55953;51.650;-0.522;2024-03-29T01:49:48;97515.40;;;7.20
68911;BMP180;55953;51.650;-0.522;2024-03-29T01:52:18;97518.60;;;7.10
68911;BMP180;55953;51.650;-0.522;2024-03-29T01:54:47;97515.00;;;7.10
68911;BMP180;55953;51.650;-0.522;2024-03-29T01:57:16;97516.80;;;7.10
68911;BMP180;55953;51.650;-0.522;2024-03-29T01:59:46;97516.60;;;7.10
68911;BMP180;55953;51.650;-0.522;2024-03-29T02:02:14;97520.80;;;7.18
68911;BMP180;55953;51.650;-0.522;2024-03-29T02:04:42;97525.00;;;7.20
68911;BMP180;55953;51.650;-0.522;2024-03-29T02:07:10;97532.40;;;7.30
68911;BMP180;55953;51.650;-0.522;2024-03-29T02:09:38;97533.60;;;7.30
68911;BMP180;55953;51.650;-0.522;2024-03-29T02:12:06;97536.40;;;7.40
68911;BMP180;55953;51.650;-0.522;2024-03-29T02:14:34;97542.00;;;7.40
68911;BMP180;55953;51.650;-0.522;2024-03-29T02:17:01;97540.80;;;7.40
68911;BMP180;55953;51.650;-0.522;2024-03-29T02:19:29;97540.20;;;7.44
68911;BMP180;55953;51.650;-0.522;2024-03-29T02:21:59;97546.00;;;7.50
68911;BMP180;55953;51.650;-0.522;2024-03-29T02:24:28;97546.60;;;7.50
68911;BMP180;55953;51.650;-0.522;2024-03-29T02:26:56;97547.00;;;7.60
68911;BMP180;55953;51.650;-0.522;2024-03-29T02:29:24;97549.80;;;7.60
68911;BMP180;55953;51.650;-0.522;2024-03-29T02:31:52;97547.80;;;7.60
68911;BMP180;55953;51.650;-0.522;2024-03-29T02:34:19;97556.60;;;7.60
68911;BMP180;55953;51.650;-0.522;2024-03-29T02:36:47;97553.80;;;7.70
68911;BMP180;55953;51.650;-0.522;2024-03-29T02:39:15;97554.20;;;7.70
68911;BMP180;55953;51.650;-0.522;2024-03-29T02:41:43;97553.80;;;7.78
68911;BMP180;55953;51.650;-0.522;2024-03-29T02:44:11;97554.60;;;7.70
68911;BMP180;55953;51.650;-0.522;2024-03-29T02:46:38;97556.00;;;7.76
68911;BMP180;55953;51.650;-0.522;2024-03-29T02:49:06;97556.60;;;7.80
68911;BMP180;55953;51.650;-0.522;2024-03-29T02:51:33;97554.80;;;7.90
68911;BMP180;55953;51.650;-0.522;2024-03-29T02:54:01;97555.80;;;7.80
68911;BMP180;55953;51.650;-0.522;2024-03-29T02:56:29;97557.60;;;7.86
68911;BMP180;55953;51.650;-0.522;2024-03-29T02:58:58;97551.60;;;7.90
68911;BMP180;55953;51.650;-0.522;2024-03-29T03:01:26;97555.20;;;7.90
68911;BMP180;55953;51.650;-0.522;2024-03-29T03:03:53;97564.60;;;7.90
68911;BMP180;55953;51.650;-0.522;2024-03-29T03:06:21;97558.20;;;7.90
68911;BMP180;55953;51.650;-0.522;2024-03-29T03:08:49;97559.40;;;7.90
68911;BMP180;55953;51.650;-0.522;2024-03-29T03:11:35;97563.80;;;7.90
68911;BMP180;55953;51.650;-0.522;2024-03-29T03:14:03;97564.80;;;7.90
68911;BMP180;55953;51.650;-0.522;2024-03-29T03:16:30;97571.60;;;7.90
68911;BMP180;55953;51.650;-0.522;2024-03-29T03:18:58;97566.80;;;7.90
68911;BMP180;55953;51.650;-0.522;2024-03-29T03:21:30;97561.40;;;7.86
68911;BMP180;55953;51.650;-0.522;2024-03-29T03:23:57;97568.00;;;7.80
68911;BMP180;55953;51.650;-0.522;2024-03-29T03:26:25;97570.80;;;7.70
68911;BMP180;55953;51.650;-0.522;2024-03-29T03:28:53;97564.80;;;7.70
68911;BMP180;55953;51.650;-0.522;2024-03-29T03:31:20;97567.20;;;7.70
68911;BMP180;55953;51.650;-0.522;2024-03-29T03:33:48;97573.00;;;7.60
68911;BMP180;55953;51.650;-0.522;2024-03-29T03:36:15;97571.00;;;7.60
68911;BMP180;55953;51.650;-0.522;2024-03-29T03:38:43;97576.00;;;7.50
68911;BMP180;55953;51.650;-0.522;2024-03-29T03:41:10;97585.20;;;7.46
68911;BMP180;55953;51.650;-0.522;2024-03-29T03:43:38;97589.00;;;7.40
68911;BMP180;55953;51.650;-0.522;2024-03-29T03:46:06;97596.40;;;7.40
68911;BMP180;55953;51.650;-0.522;2024-03-29T03:48:33;97598.80;;;7.40
68911;BMP180;55953;51.650;-0.522;2024-03-29T03:51:01;97599.40;;;7.40
68911;BMP180;55953;51.650;-0.522;2024-03-29T03:53:28;97591.80;;;7.40
68911;BMP180;55953;51.650;-0.522;2024-03-29T03:55:56;97598.20;;;7.40
68911;BMP180;55953;51.650;-0.522;2024-03-29T03:58:23;97601.00;;;7.40
68911;BMP180;55953;51.650;-0.522;2024-03-29T04:00:51;97606.00;;;7.40
68911;BMP180;55953;51.650;-0.522;2024-03-29T04:03:19;97604.40;;;7.40
68911;BMP180;55953;51.650;-0.522;2024-03-29T04:05:46;97605.60;;;7.40
68911;BMP180;55953;51.650;-0.522;2024-03-29T04:08:14;97600.00;;;7.42
68911;BMP180;55953;51.650;-0.522;2024-03-29T04:10:43;97595.20;;;7.40
68911;BMP180;55953;51.650;-0.522;2024-03-29T04:13:10;97597.00;;;7.40
68911;BMP180;55953;51.650;-0.522;2024-03-29T04:15:38;97599.60;;;7.40
68911;BMP180;55953;51.650;-0.522;2024-03-29T04:18:06;97597.20;;;7.48
68911;BMP180;55953;51.650;-0.522;2024-03-29T04:20:33;97600.40;;;7.50
68911;BMP180;55953;51.650;-0.522;2024-03-29T04:23:04;97609.40;;;7.56
68911;BMP180;55953;51.650;-0.522;2024-03-29T04:25:33;97603.60;;;7.60
68911;BMP180;55953;51.650;-0.522;2024-03-29T04:28:01;97608.00;;;7.66
68911;BMP180;55953;51.650;-0.522;2024-03-29T04:30:28;97612.40;;;7.70
68911;BMP180;55953;51.650;-0.522;2024-03-29T04:32:57;97610.20;;;7.70
68911;BMP180;55953;51.650;-0.522;2024-03-29T04:35:24;97606.60;;;7.70
68911;BMP180;55953;51.650;-0.522;2024-03-29T04:37:52;97600.40;;;7.70
68911;BMP180;55953;51.650;-0.522;2024-03-29T04:40:20;97606.40;;;7.70
68911;BMP180;55953;51.650;-0.522;2024-03-29T04:42:47;97606.00;;;7.78
68911;BMP180;55953;51.650;-0.522;2024-03-29T04:45:15;97607.40;;;7.80
68911;BMP180;55953;51.650;-0.522;2024-03-29T04:47:43;97604.00;;;7.80
68911;BMP180;55953;51.650;-0.522;2024-03-29T04:50:10;97602.40;;;7.80
68911;BMP180;55953;51.650;-0.522;2024-03-29T04:52:38;97603.40;;;7.80
68911;BMP180;55953;51.650;-0.522;2024-03-29T04:55:06;97600.80;;;7.80
68911;BMP180;55953;51.650;-0.522;2024-03-29T04:57:34;97603.00;;;7.80
68911;BMP180;55953;51.650;-0.522;2024-03-29T05:00:02;97602.80;;;7.72
68911;BMP180;55953;51.650;-0.522;2024-03-29T05:02:30;97608.60;;;7.70
68911;BMP180;55953;51.650;-0.522;2024-03-29T05:04:57;97607.00;;;7.70
68911;BMP180;55953;51.650;-0.522;2024-03-29T05:07:25;97610.00;;;7.70
68911;BMP180;55953;51.650;-0.522;2024-03-29T05:09:53;97608.00;;;7.72
68911;BMP180;55953;51.650;-0.522;2024-03-29T05:12:21;97613.00;;;7.70
68911;BMP180;55953;51.650;-0.522;2024-03-29T05:14:49;97611.20;;;7.70
68911;BMP180;55953;51.650;-0.522;2024-03-29T05:17:16;97620.40;;;7.68
68911;BMP180;55953;51.650;-0.522;2024-03-29T05:19:44;97621.20;;;7.70
68911;BMP180;55953;51.650;-0.522;2024-03-29T05:22:12;97623.80;;;7.70
68911;BMP180;55953;51.650;-0.522;2024-03-29T05:24:39;97630.60;;;7.70
68911;BMP180;55953;51.650;-0.522;2024-03-29T05:27:07;97636.60;;;7.80
68911;BMP180;55953;51.650;-0.522;2024-03-29T05:29:34;97641.20;;;7.80
68911;BMP180;55953;51.650;-0.522;2024-03-29T05:32:02;97643.20;;;7.80
68911;BMP180;55953;51.650;-0.522;2024-03-29T05:34:31;97647.20;;;7.80
68911;BMP180;55953;51.650;-0.522;2024-03-29T05:36:59;97648.00;;;7.90
68911;BMP180;55953;51.650;-0.522;2024-03-29T05:39:26;97645.00;;;7.90
68911;BMP180;55953;51.650;-0.522;2024-03-29T05:41:54;97640.40;;;7.90
68911;BMP180;55953;51.650;-0.522;2024-03-29T05:44:21;97646.80;;;7.90
68911;BMP180;55953;51.650;-0.522;2024-03-29T05:46:49;97640.40;;;7.80
68911;BMP180;55953;51.650;-0.522;2024-03-29T05:49:17;97643.60;;;7.80
68911;BMP180;55953;51.650;-0.522;2024-03-29T05:51:45;97644.60;;;7.80
68911;BMP180;55953;51.650;-0.522;2024-03-29T05:54:12;97654.20;;;7.80
68911;BMP180;55953;51.650;-0.522;2024-03-29T05:56:40;97648.60;;;7.72
68911;BMP180;55953;51.650;-0.522;2024-03-29T05:59:07;97648.60;;;7.76
68911;BMP180;55953;51.650;-0.522;2024-03-29T06:01:35;97645.00;;;7.80
68911;BMP180;55953;51.650;-0.522;2024-03-29T06:04:03;97647.60;;;7.72
68911;BMP180;55953;51.650;-0.522;2024-03-29T06:06:36;97651.40;;;7.70
68911;BMP180;55953;51.650;-0.522;2024-03-29T06:09:03;97655.00;;;7.70
68911;BMP180;55953;51.650;-0.522;2024-03-29T06:11:31;97656.00;;;7.74
68911;BMP180;55953;51.650;-0.522;2024-03-29T06:13:59;97656.00;;;7.80
68911;BMP180;55953;51.650;-0.522;2024-03-29T06:16:28;97656.00;;;7.80
68911;BMP180;55953;51.650;-0.522;2024-03-29T06:19:15;97649.60;;;7.90
68911;BMP180;55953;51.650;-0.522;2024-03-29T06:21:42;97651.80;;;8.00
68911;BMP180;55953;51.650;-0.522;2024-03-29T06:24:11;97648.80;;;8.00
68911;BMP180;55953;51.650;-0.522;2024-03-29T06:26:42;97645.60;;;8.08
68911;BMP180;55953;51.650;-0.522;2024-03-29T06:29:10;97643.60;;;8.08
68911;BMP180;55953;51.650;-0.522;2024-03-29T06:31:37;97639.00;;;8.08
68911;BMP180;55953;51.650;-0.522;2024-03-29T06:34:05;97638.80;;;8.10
68911;BMP180;55953;51.650;-0.522;2024-03-29T06:36:34;97642.00;;;8.10
68911;BMP180;55953;51.650;-0.522;2024-03-29T06:39:03;97639.60;;;8.10
68911;BMP180;55953;51.650;-0.522;2024-03-29T06:41:31;97637.60;;;8.10
68911;BMP180;55953;51.650;-0.522;2024-03-29T06:43:59;97647.00;;;8.18
68911;BMP180;55953;51.650;-0.522;2024-03-29T06:46:27;97656.20;;;8.20
68911;BMP180;55953;51.650;-0.522;2024-03-29T06:48:54;97653.20;;;8.24
68911;BMP180;55953;51.650;-0.522;2024-03-29T06:51:22;97652.60;;;8.32
68911;BMP180;55953;51.650;-0.522;2024-03-29T06:53:50;97657.40;;;8.42
68911;BMP180;55953;51.650;-0.522;2024-03-29T06:56:17;97662.40;;;8.60
68911;BMP180;55953;51.650;-0.522;2024-03-29T06:58:45;97662.60;;;8.70
68911;BMP180;55953;51.650;-0.522;2024-03-29T07:01:13;97671.20;;;8.80
68911;BMP180;55953;51.650;-0.522;2024-03-29T07:03:41;97667.80;;;8.80
68911;BMP180;55953;51.650;-0.522;2024-03-29T07:06:09;97664.80;;;8.80
68911;BMP180;55953;51.650;-0.522;2024-03-29T07:08:37;97665.60;;;8.80
68911;BMP180;55953;51.650;-0.522;2024-03-29T07:11:04;97661.80;;;8.80
68911;BMP180;55953;51.650;-0.522;2024-03-29T07:13:32;97663.20;;;8.88
68911;BMP180;55953;51.650;-0.522;2024-03-29T07:16:01;97660.60;;;8.90
68911;BMP180;55953;51.650;-0.522;2024-03-29T07:18:29;97672.00;;;9.00
68911;BMP180;55953;51.650;-0.522;2024-03-29T07:20:57;97672.60;;;9.00
68911;BMP180;55953;51.650;-0.522;2024-03-29T07:23:25;97675.40;;;9.10
68911;BMP180;55953;51.650;-0.522;2024-03-29T07:26:03;97674.80;;;9.10
68911;BMP180;55953;51.650;-0.522;2024-03-29T07:28:31;97675.00;;;9.10
68911;BMP180;55953;51.650;-0.522;2024-03-29T07:31:06;97678.80;;;9.10
68911;BMP180;55953;51.650;-0.522;2024-03-29T07:33:36;97678.80;;;9.10
68911;BMP180;55953;51.650;-0.522;2024-03-29T07:36:05;97683.40;;;9.10
68911;BMP180;55953;51.650;-0.522;2024-03-29T07:38:33;97681.60;;;9.10
68911;BMP180;55953;51.650;-0.522;2024-03-29T07:41:00;97685.60;;;9.18
68911;BMP180;55953;51.650;-0.522;2024-03-29T07:43:50;97686.00;;;9.20
68911;BMP180;55953;51.650;-0.522;2024-03-29T07:46:19;97687.60;;;9.30
68911;BMP180;55953;51.650;-0.522;2024-03-29T07:48:49;97684.00;;;9.40
68911;BMP180;55953;51.650;-0.522;2024-03-29T07:51:17;97682.20;;;9.42
68911;BMP180;55953;51.650;-0.522;2024-03-29T07:53:45;97686.40;;;9.50
68911;BMP180;55953;51.650;-0.522;2024-03-29T07:56:13;97685.60;;;9.62
68911;BMP180;55953;51.650;-0.522;2024-03-29T07:58:40;97684.60;;;9.70
68911;BMP180;55953;51.650;-0.522;2024-03-29T08:01:08;97683.00;;;9.80
68911;BMP180;55953;51.650;-0.522;2024-03-29T08:03:36;97683.60;;;9.90
68911;BMP180;55953;51.650;-0.522;2024-03-29T08:06:04;97685.20;;;9.90
68911;BMP180;55953;51.650;-0.522;2024-03-29T08:08:33;97691.20;;;9.90
68911;BMP180;55953;51.650;-0.522;2024-03-29T08:11:00;97690.00;;;9.80
68911;BMP180;55953;51.650;-0.522;2024-03-29T08:13:28;97684.40;;;9.80
68911;BMP180;55953;51.650;-0.522;2024-03-29T08:15:58;97684.60;;;9.80
68911;BMP180;55953;51.650;-0.522;2024-03-29T08:18:28;97684.20;;;9.80
68911;BMP180;55953;51.650;-0.522;2024-03-29T08:20:55;97693.00;;;9.80
68911;BMP180;55953;51.650;-0.522;2024-03-29T08:23:23;97704.80;;;9.80
68911;BMP180;55953;51.650;-0.522;2024-03-29T08:25:51;97699.80;;;9.80
68911;BMP180;55953;51.650;-0.522;2024-03-29T08:28:19;97706.40;;;9.80
68911;BMP180;55953;51.650;-0.522;2024-03-29T08:31:00;97703.40;;;9.88
68911;BMP180;55953;51.650;-0.522;2024-03-29T08:33:28;97709.20;;;9.86
68911;BMP180;55953;51.650;-0.522;2024-03-29T08:35:58;97706.60;;;9.90
68911;BMP180;55953;51.650;-0.522;2024-03-29T08:38:26;97712.40;;;10.00
68911;BMP180;55953;51.650;-0.522;2024-03-29T08:40:53;97714.40;;;10.04
68911;BMP180;55953;51.650;-0.522;2024-03-29T08:43:21;97715.20;;;10.10
68911;BMP180;55953;51.650;-0.522;2024-03-29T08:45:49;97719.00;;;10.10
68911;BMP180;55953;51.650;-0.522;2024-03-29T08:48:17;97727.20;;;10.20
68911;BMP180;55953;51.650;-0.522;2024-03-29T08:50:44;97731.20;;;10.22
68911;BMP180;55953;51.650;-0.522;2024-03-29T08:53:12;97725.60;;;10.40
68911;BMP180;55953;51.650;-0.522;2024-03-29T08:55:40;97732.40;;;10.40
68911;BMP180;55953;51.650;-0.522;2024-03-29T08:58:08;97727.80;;;10.50
68911;BMP180;55953;51.650;-0.522;2024-03-29T09:00:35;97737.80;;;10.56
68911;BMP180;55953;51.650;-0.522;2024-03-29T09:03:03;97736.20;;;10.60
68911;BMP180;55953;51.650;-0.522;2024-03-29T09:05:31;97731.60;;;10.70
68911;BMP180;55953;51.650;-0.522;2024-03-29T09:07:59;97731.20;;;10.88
68911;BMP180;55953;51.650;-0.522;2024-03-29T09:10:26;97736.60;;;11.00
68911;BMP180;55953;51.650;-0.522;2024-03-29T09:12:54;97741.60;;;11.00
68911;BMP180;55953;51.650;-0.522;2024-03-29T09:15:21;97737.40;;;11.00
68911;BMP180;55953;51.650;-0.522;2024-03-29T09:17:49;97737.60;;;11.10
68911;BMP180;55953;51.650;-0.522;2024-03-29T09:20:17;97737.00;;;11.20
68911;BMP180;55953;51.650;-0.522;2024-03-29T09:22:45;97743.80;;;11.20
68911;BMP180;55953;51.650;-0.522;2024-03-29T09:25:13;97744.80;;;11.10
68911;BMP180;55953;51.650;-0.522;2024-03-29T09:27:45;97740.00;;;11.20
68911;BMP180;55953;51.650;-0.522;2024-03-29T09:30:14;97742.80;;;11.40
68911;BMP180;55953;51.650;-0.522;2024-03-29T09:32:42;97740.00;;;11.40
68911;BMP180;55953;51.650;-0.522;2024-03-29T09:35:10;97741.20;;;11.40
68911;BMP180;55953;51.650;-0.522;2024-03-29T09:37:38;97749.20;;;11.30
68911;BMP180;55953;51.650;-0.522;2024-03-29T09:40:08;97752.40;;;11.30
68911;BMP180;55953;51.650;-0.522;2024-03-29T09:42:38;97756.60;;;11.30
68911;BMP180;55953;51.650;-0.522;2024-03-29T09:45:07;97758.80;;;11.30
68911;BMP180;55953;51.650;-0.522;2024-03-29T09:47:36;97759.80;;;11.30
68911;BMP180;55953;51.650;-0.522;2024-03-29T09:50:06;97761.60;;;11.30
68911;BMP180;55953;51.650;-0.522;2024-03-29T09:52:35;97777.60;;;11.40
68911;BMP180;55953;51.650;-0.522;2024-03-29T09:55:04;97779.20;;;11.50
68911;BMP180;55953;51.650;-0.522;2024-03-29T09:57:32;97778.40;;;11.70
68911;BMP180;55953;51.650;-0.522;2024-03-29T10:00:00;97781.40;;;11.70
68911;BMP180;55953;51.650;-0.522;2024-03-29T10:02:31;97783.00;;;11.70
68911;BMP180;55953;51.650;-0.522;2024-03-29T10:05:02;97782.20;;;11.80
68911;BMP180;55953;51.650;-0.522;2024-03-29T10:07:35;97782.00;;;11.80
68911;BMP180;55953;51.650;-0.522;2024-03-29T10:10:04;97779.80;;;11.86
68911;BMP180;55953;51.650;-0.522;2024-03-29T10:12:31;97779.60;;;11.90
68911;BMP180;55953;51.650;-0.522;2024-03-29T10:14:59;97777.60;;;12.10
68911;BMP180;55953;51.650;-0.522;2024-03-29T10:17:36;97768.20;;;12.20
68911;BMP180;55953;51.650;-0.522;2024-03-29T10:20:06;97770.60;;;12.38
68911;BMP180;55953;51.650;-0.522;2024-03-29T10:22:45;97764.80;;;12.40
68911;BMP180;55953;51.650;-0.522;2024-03-29T10:25:16;97775.20;;;12.56
68911;BMP180;55953;51.650;-0.522;2024-03-29T10:27:44;97761.20;;;12.84
68911;BMP180;55953;51.650;-0.522;2024-03-29T10:30:12;97758.20;;;13.12
68911;BMP180;55953;51.650;-0.522;2024-03-29T10:32:44;97763.80;;;13.40
68911;BMP180;55953;51.650;-0.522;2024-03-29T10:35:12;97768.00;;;13.40
68911;BMP180;55953;51.650;-0.522;2024-03-29T10:37:42;97771.80;;;13.50
68911;BMP180;55953;51.650;-0.522;2024-03-29T10:40:11;97775.60;;;13.50
68911;BMP180;55953;51.650;-0.522;2024-03-29T10:42:43;97780.20;;;13.50
68911;BMP180;55953;51.650;-0.522;2024-03-29T10:45:12;97776.00;;;13.50
68911;BMP180;55953;51.650;-0.522;2024-03-29T10:47:41;97781.80;;;13.60
68911;BMP180;55953;51.650;-0.522;2024-03-29T10:50:13;97773.80;;;13.60
68911;BMP180;55953;51.650;-0.522;2024-03-29T10:52:43;97781.40;;;13.50
68911;BMP180;55953;51.650;-0.522;2024-03-29T10:55:11;97789.60;;;13.28
68911;BMP180;55953;51.650;-0.522;2024-03-29T10:57:41;97787.00;;;13.00
68911;BMP180;55953;51.650;-0.522;2024-03-29T11:00:15;97792.40;;;12.80
68911;BMP180;55953;51.650;-0.522;2024-03-29T11:05:50;97803.80;;;13.00
68911;BMP180;55953;51.650;-0.522;2024-03-29T11:08:24;97807.20;;;13.00
68911;BMP180;55953;51.650;-0.522;2024-03-29T11:10:58;97803.00;;;13.10
68911;BMP180;55953;51.650;-0.522;2024-03-29T11:13:38;97800.80;;;13.22
68911;BMP180;55953;51.650;-0.522;2024-03-29T11:16:08;97801.40;;;13.30
68911;BMP180;55953;51.650;-0.522;2024-03-29T11:18:37;97799.60;;;13.34
68911;BMP180;55953;51.650;-0.522;2024-03-29T11:21:09;97799.00;;;13.40
68911;BMP180;55953;51.650;-0.522;2024-03-29T11:23:39;97797.80;;;13.42
68911;BMP180;55953;51.650;-0.522;2024-03-29T11:26:07;97796.20;;;13.50
68911;BMP180;55953;51.650;-0.522;2024-03-29T11:28:35;97790.80;;;13.64
68911;BMP180;55953;51.650;-0.522;2024-03-29T11:31:07;97788.00;;;13.90
68911;BMP180;55953;51.650;-0.522;2024-03-29T11:33:44;97794.40;;;14.10
68911;BMP180;55953;51.650;-0.522;2024-03-29T11:36:24;97799.40;;;14.20
68911;BMP180;55953;51.650;-0.522;2024-03-29T11:38:56;97802.00;;;14.20
68911;BMP180;55953;51.650;-0.522;2024-03-29T11:41:27;97804.80;;;14.20
68911;BMP180;55953;51.650;-0.522;2024-03-29T11:43:56;97806.40;;;14.00
68911;BMP180;55953;51.650;-0.522;2024-03-29T11:46:25;97805.60;;;13.90
68911;BMP180;55953;51.650;-0.522;2024-03-29T11:48:53;97803.40;;;13.90
68911;BMP180;55953;51.650;-0.522;2024-03-29T11:51:22;97799.40;;;13.90
68911;BMP180;55953;51.650;-0.522;2024-03-29T11:53:51;97793.00;;;13.80
68911;BMP180;55953;51.650;-0.522;2024-03-29T11:56:19;97801.00;;;13.70
68911;BMP180;55953;51.650;-0.522;2024-03-29T11:58:48;97808.80;;;13.60
68911;BMP180;55953;51.650;-0.522;2024-03-29T12:01:16;97818.00;;;13.50
68911;BMP180;55953;51.650;-0.522;2024-03-29T12:03:44;97819.40;;;13.30
68911;BMP180;55953;51.650;-0.522;2024-03-29T12:06:14;97817.80;;;13.20
68911;BMP180;55953;51.650;-0.522;2024-03-29T12:08:43;97815.00;;;13.10
68911;BMP180;55953;51.650;-0.522;2024-03-29T12:11:10;97830.20;;;13.00
68911;BMP180;55953;51.650;-0.522;2024-03-29T12:13:38;97833.20;;;12.80
68911;BMP180;55953;51.650;-0.522;2024-03-29T12:16:08;97828.80;;;12.70
68911;BMP180;55953;51.650;-0.522;2024-03-29T12:18:36;97839.00;;;12.60
68911;BMP180;55953;51.650;-0.522;2024-03-29T12:21:04;97839.40;;;12.50
68911;BMP180;55953;51.650;-0.522;2024-03-29T12:23:31;97831.80;;;12.60
68911;BMP180;55953;51.650;-0.522;2024-03-29T12:26:00;97827.80;;;12.80
68911;BMP180;55953;51.650;-0.522;2024-03-29T12:28:28;97834.40;;;13.12
68911;BMP180;55953;51.650;-0.522;2024-03-29T12:30:58;97841.80;;;13.40
68911;BMP180;55953;51.650;-0.522;2024-03-29T12:33:25;97829.80;;;13.60
68911;BMP180;55953;51.650;-0.522;2024-03-29T12:35:53;97831.60;;;13.70
68911;BMP180;55953;51.650;-0.522;2024-03-29T12:38:22;97826.60;;;13.80
68911;BMP180;55953;51.650;-0.522;2024-03-29T12:40:51;97828.20;;;13.90
68911;BMP180;55953;51.650;-0.522;2024-03-29T12:43:22;97829.20;;;14.08
68911;BMP180;55953;51.650;-0.522;2024-03-29T12:45:51;97837.60;;;14.16
68911;BMP180;55953;51.650;-0.522;2024-03-29T12:48:21;97837.40;;;14.20
68911;BMP180;55953;51.650;-0.522;2024-03-29T12:50:51;97838.00;;;14.20
68911;BMP180;55953;51.650;-0.522;2024-03-29T12:53:20;97840.00;;;14.20
68911;BMP180;55953;51.650;-0.522;2024-03-29T12:55:49;97839.40;;;14.40
68911;BMP180;55953;51.650;-0.522;2024-03-29T12:58:18;97843.20;;;14.40
68911;BMP180;55953;51.650;-0.522;2024-03-29T13:00:49;97841.00;;;14.44
68911;BMP180;55953;51.650;-0.522;2024-03-29T13:03:17;97841.80;;;14.48
68911;BMP180;55953;51.650;-0.522;2024-03-29T13:05:46;97844.40;;;14.58
68911;BMP180;55953;51.650;-0.522;2024-03-29T13:08:14;97850.00;;;14.70
68911;BMP180;55953;51.650;-0.522;2024-03-29T13:10:45;97853.40;;;14.90
68911;BMP180;55953;51.650;-0.522;2024-03-29T13:13:13;97852.60;;;14.90
68911;BMP180;55953;51.650;-0.522;2024-03-29T13:15:40;97853.00;;;14.90
68911;BMP180;55953;51.650;-0.522;2024-03-29T13:18:14;97860.00;;;14.80
68911;BMP180;55953;51.650;-0.522;2024-03-29T13:20:44;97858.20;;;14.60
68911;BMP180;55953;51.650;-0.522;2024-03-29T13:23:11;97862.20;;;14.40
68911;BMP180;55953;51.650;-0.522;2024-03-29T13:25:39;97866.40;;;14.40
68911;BMP180;55953;51.650;-0.522;2024-03-29T13:28:07;97860.60;;;14.40
68911;BMP180;55953;51.650;-0.522;2024-03-29T13:30:35;97855.80;;;14.60
68911;BMP180;55953;51.650;-0.522;2024-03-29T13:33:06;97856.80;;;14.60
68911;BMP180;55953;51.650;-0.522;2024-03-29T13:35:33;97862.60;;;14.50
68911;BMP180;55953;51.650;-0.522;2024-03-29T13:38:02;97858.60;;;14.40
68911;BMP180;55953;51.650;-0.522;2024-03-29T13:40:30;97853.40;;;14.50
68911;BMP180;55953;51.650;-0.522;2024-03-29T13:43:00;97866.00;;;14.44
68911;BMP180;55953;51.650;-0.522;2024-03-29T13:45:28;97864.40;;;14.50
68911;BMP180;55953;51.650;-0.522;2024-03-29T13:47:56;97872.40;;;14.60
68911;BMP180;55953;51.650;-0.522;2024-03-29T13:50:24;97881.00;;;14.60
68911;BMP180;55953;51.650;-0.522;2024-03-29T13:52:52;97882.40;;;14.72
68911;BMP180;55953;51.650;-0.522;2024-03-29T13:55:22;97877.00;;;14.90
68911;BMP180;55953;51.650;-0.522;2024-03-29T13:57:53;97877.20;;;15.00
68911;BMP180;55953;51.650;-0.522;2024-03-29T14:00:22;97882.20;;;15.10
68911;BMP180;55953;51.650;-0.522;2024-03-29T14:02:50;97883.20;;;15.20
68911;BMP180;55953;51.650;-0.522;2024-03-29T14:05:18;97884.60;;;15.18
68911;BMP180;55953;51.650;-0.522;2024-03-29T14:07:45;97879.00;;;15.00
68911;BMP180;55953;51.650;-0.522;2024-03-29T14:10:13;97882.60;;;15.00
68911;BMP180;55953;51.650;-0.522;2024-03-29T14:12:41;97889.20;;;14.90
68911;BMP180;55953;51.650;-0.522;2024-03-29T14:15:08;97892.80;;;14.94